sensor_id;sensor_type;location;lat;lon;timestamp;temperature;humidity
38910;DHT22;24676;51.360;12.354;2023-07-31T00:01:52;15.90;99.90
38910;DHT22;24676;51.360;12.354;2023-07-31T00:04:36;15.90;99.90
38910;DHT22;24676;51.360;12.354;2023-07-31T00:07:20;16.00;99.90
38910;DHT22;24676;51.360;12.354;2023-07-31T00:10:04;16.00;99.90
38910;DHT22;24676;51.360;12.354;2023-07-31T00:12:49;16.10;99.90
38910;DHT22;24676;51.360;12.354;2023-07-31T00:15:33;16.10;99.90
38910;DHT22;24676;51.360;12.354;2023-07-31T00:18:17;16.10;99.90
38910;DHT22;24676;51.360;12.354;2023-07-31T00:21:01;16.00;99.90
38910;DHT22;24676;51.360;12.354;2023-07-31T00:23:45;16.00;99.90
38910;DHT22;24676;51.360;12.354;2023-07-31T00:26:29;15.90;99.90
38910;DHT22;24676;51.360;12.354;2023-07-31T00:29:14;16.00;99.90
38910;DHT22;24676;51.360;12.354;2023-07-31T00:31:58;16.00;99.90
38910;DHT22;24676;51.360;12.354;2023-07-31T00:34:42;16.00;99.90
38910;DHT22;24676;51.360;12.354;2023-07-31T00:37:27;16.00;99.90
38910;DHT22;24676;51.360;12.354;2023-07-31T00:40:11;16.10;99.90
38910;DHT22;24676;51.360;12.354;2023-07-31T00:42:55;16.10;99.90
38910;DHT22;24676;51.360;12.354;2023-07-31T00:45:40;16.10;99.90
38910;DHT22;24676;51.360;12.354;2023-07-31T00:48:25;16.10;99.90
38910;DHT22;24676;51.360;12.354;2023-07-31T00:51:10;16.10;99.90
38910;DHT22;24676;51.360;12.354;2023-07-31T00:53:55;16.10;99.90
38910;DHT22;24676;51.360;12.354;2023-07-31T00:56:40;16.20;99.90
38910;DHT22;24676;51.360;12.354;2023-07-31T00:59:25;16.20;99.90
38910;DHT22;24676;51.360;12.354;2023-07-31T01:02:10;16.30;99.90
38910;DHT22;24676;51.360;12.354;2023-07-31T01:04:54;16.30;99.90
38910;DHT22;24676;51.360;12.354;2023-07-31T01:07:42;16.30;99.90
38910;DHT22;24676;51.360;12.354;2023-07-31T01:10:33;16.30;99.90
38910;DHT22;24676;51.360;12.354;2023-07-31T01:13:21;16.40;99.90
38910;DHT22;24676;51.360;12.354;2023-07-31T01:16:05;16.40;99.90
38910;DHT22;24676;51.360;12.354;2023-07-31T01:18:49;16.40;99.90
38910;DHT22;24676;51.360;12.354;2023-07-31T01:21:58;16.40;99.90
38910;DHT22;24676;51.360;12.354;2023-07-31T01:28:03;16.60;99.90
38910;DHT22;24676;51.360;12.354;2023-07-31T01:30:48;16.60;99.90
38910;DHT22;24676;51.360;12.354;2023-07-31T01:33:34;16.70;99.90
38910;DHT22;24676;51.360;12.354;2023-07-31T01:36:18;16.70;99.90
38910;DHT22;24676;51.360;12.354;2023-07-31T01:39:03;16.80;99.90
38910;DHT22;24676;51.360;12.354;2023-07-31T01:41:47;16.90;99.90
38910;DHT22;24676;51.360;12.354;2023-07-31T01:44:32;16.90;99.90
38910;DHT22;24676;51.360;12.354;2023-07-31T01:47:16;16.90;99.90
38910;DHT22;24676;51.360;12.354;2023-07-31T01:50:00;16.70;99.90
38910;DHT22;24676;51.360;12.354;2023-07-31T01:52:44;16.60;99.90
38910;DHT22;24676;51.360;12.354;2023-07-31T01:55:28;16.50;99.90
38910;DHT22;24676;51.360;12.354;2023-07-31T01:58:13;16.40;99.90
38910;DHT22;24676;51.360;12.354;2023-07-31T02:00:57;16.30;99.90
38910;DHT22;24676;51.360;12.354;2023-07-31T02:03:42;16.20;99.90
38910;DHT22;24676;51.360;12.354;2023-07-31T02:06:26;16.20;99.90
38910;DHT22;24676;51.360;12.354;2023-07-31T02:09:10;16.20;99.90
38910;DHT22;24676;51.360;12.354;2023-07-31T02:11:55;16.20;99.90
38910;DHT22;24676;51.360;12.354;2023-07-31T02:14:39;16.20;99.90
38910;DHT22;24676;51.360;12.354;2023-07-31T02:17:23;16.30;99.90
38910;DHT22;24676;51.360;12.354;2023-07-31T02:20:08;16.20;99.90
38910;DHT22;24676;51.360;12.354;2023-07-31T02:22:52;16.30;99.90
38910;DHT22;24676;51.360;12.354;2023-07-31T02:25:36;16.30;99.90
38910;DHT22;24676;51.360;12.354;2023-07-31T02:28:21;16.30;99.90
38910;DHT22;24676;51.360;12.354;2023-07-31T02:31:05;16.40;99.90
38910;DHT22;24676;51.360;12.354;2023-07-31T02:33:49;16.40;99.90
38910;DHT22;24676;51.360;12.354;2023-07-31T02:36:33;16.40;99.90
38910;DHT22;24676;51.360;12.354;2023-07-31T02:39:18;16.40;99.90
38910;DHT22;24676;51.360;12.354;2023-07-31T02:42:02;16.50;99.90
38910;DHT22;24676;51.360;12.354;2023-07-31T02:44:47;16.50;99.90
38910;DHT22;24676;51.360;12.354;2023-07-31T02:47:31;16.40;99.90
38910;DHT22;24676;51.360;12.354;2023-07-31T02:50:16;16.40;99.90
38910;DHT22;24676;51.360;12.354;2023-07-31T02:53:00;16.40;99.90
38910;DHT22;24676;51.360;12.354;2023-07-31T02:55:44;16.30;99.90
38910;DHT22;24676;51.360;12.354;2023-07-31T02:58:28;16.30;99.90
38910;DHT22;24676;51.360;12.354;2023-07-31T03:01:12;16.30;99.90
38910;DHT22;24676;51.360;12.354;2023-07-31T03:03:57;16.30;99.90
38910;DHT22;24676;51.360;12.354;2023-07-31T03:06:40;16.30;99.90
38910;DHT22;24676;51.360;12.354;2023-07-31T03:09:24;16.30;99.90
38910;DHT22;24676;51.360;12.354;2023-07-31T03:12:09;16.30;99.90
38910;DHT22;24676;51.360;12.354;2023-07-31T03:14:53;16.30;99.90
38910;DHT22;24676;51.360;12.354;2023-07-31T03:17:37;16.30;99.90
38910;DHT22;24676;51.360;12.354;2023-07-31T03:20:21;16.30;99.90
38910;DHT22;24676;51.360;12.354;2023-07-31T03:23:05;16.30;99.90
38910;DHT22;24676;51.360;12.354;2023-07-31T03:25:57;16.30;99.90
38910;DHT22;24676;51.360;12.354;2023-07-31T03:28:42;16.30;99.90
38910;DHT22;24676;51.360;12.354;2023-07-31T03:31:26;16.30;99.90
38910;DHT22;24676;51.360;12.354;2023-07-31T03:34:11;16.30;99.90
38910;DHT22;24676;51.360;12.354;2023-07-31T03:36:55;16.30;99.90
38910;DHT22;24676;51.360;12.354;2023-07-31T03:39:40;16.30;99.90
38910;DHT22;24676;51.360;12.354;2023-07-31T03:42:24;16.30;99.90
38910;DHT22;24676;51.360;12.354;2023-07-31T03:45:09;16.10;99.90
38910;DHT22;24676;51.360;12.354;2023-07-31T03:47:53;15.90;99.90
38910;DHT22;24676;51.360;12.354;2023-07-31T03:50:38;15.70;99.90
38910;DHT22;24676;51.360;12.354;2023-07-31T03:53:22;15.60;99.90
38910;DHT22;24676;51.360;12.354;2023-07-31T03:56:07;15.50;99.90
38910;DHT22;24676;51.360;12.354;2023-07-31T03:58:51;15.50;99.90
38910;DHT22;24676;51.360;12.354;2023-07-31T04:01:35;15.50;99.90
38910;DHT22;24676;51.360;12.354;2023-07-31T04:04:19;15.40;99.90
38910;DHT22;24676;51.360;12.354;2023-07-31T04:07:03;15.40;99.90
38910;DHT22;24676;51.360;12.354;2023-07-31T04:09:47;15.40;99.90
38910;DHT22;24676;51.360;12.354;2023-07-31T04:12:32;15.50;99.90
38910;DHT22;24676;51.360;12.354;2023-07-31T04:15:16;15.50;99.90
38910;DHT22;24676;51.360;12.354;2023-07-31T04:18:00;15.60;99.90
38910;DHT22;24676;51.360;12.354;2023-07-31T04:20:44;15.60;99.90
38910;DHT22;24676;51.360;12.354;2023-07-31T04:23:28;15.70;99.90
38910;DHT22;24676;51.360;12.354;2023-07-31T04:26:13;15.70;99.90
38910;DHT22;24676;51.360;12.354;2023-07-31T04:28:57;15.70;99.90
38910;DHT22;24676;51.360;12.354;2023-07-31T04:31:41;15.60;99.90
38910;DHT22;24676;51.360;12.354;2023-07-31T04:34:25;15.60;99.90
38910;DHT22;24676;51.360;12.354;2023-07-31T04:37:09;15.50;99.90
38910;DHT22;24676;51.360;12.354;2023-07-31T04:39:54;15.50;99.90
38910;DHT22;24676;51.360;12.354;2023-07-31T04:42:38;15.60;99.90
38910;DHT22;24676;51.360;12.354;2023-07-31T04:45:22;15.60;99.90
38910;DHT22;24676;51.360;12.354;2023-07-31T04:48:06;15.70;99.90
38910;DHT22;24676;51.360;12.354;2023-07-31T04:50:50;15.70;99.90
38910;DHT22;24676;51.360;12.354;2023-07-31T04:53:35;15.60;99.90
38910;DHT22;24676;51.360;12.354;2023-07-31T04:56:19;15.50;99.90
38910;DHT22;24676;51.360;12.354;2023-07-31T04:59:03;15.50;99.90
38910;DHT22;24676;51.360;12.354;2023-07-31T05:01:48;15.50;99.90
38910;DHT22;24676;51.360;12.354;2023-07-31T05:04:32;15.40;99.90
38910;DHT22;24676;51.360;12.354;2023-07-31T05:07:16;15.30;99.90
38910;DHT22;24676;51.360;12.354;2023-07-31T05:10:01;15.30;99.90
38910;DHT22;24676;51.360;12.354;2023-07-31T05:12:45;15.20;99.90
38910;DHT22;24676;51.360;12.354;2023-07-31T05:15:29;15.20;99.90
38910;DHT22;24676;51.360;12.354;2023-07-31T05:18:13;15.20;99.90
38910;DHT22;24676;51.360;12.354;2023-07-31T05:20:58;15.10;99.90
38910;DHT22;24676;51.360;12.354;2023-07-31T05:23:42;15.10;99.90
38910;DHT22;24676;51.360;12.354;2023-07-31T05:26:27;15.10;99.90
38910;DHT22;24676;51.360;12.354;2023-07-31T05:29:11;15.10;99.90
38910;DHT22;24676;51.360;12.354;2023-07-31T05:31:55;15.10;99.90
38910;DHT22;24676;51.360;12.354;2023-07-31T05:34:40;15.20;99.90
38910;DHT22;24676;51.360;12.354;2023-07-31T05:37:24;15.20;99.90
38910;DHT22;24676;51.360;12.354;2023-07-31T05:40:08;15.10;99.90
38910;DHT22;24676;51.360;12.354;2023-07-31T05:42:52;15.10;99.90
38910;DHT22;24676;51.360;12.354;2023-07-31T05:45:36;15.20;99.90
38910;DHT22;24676;51.360;12.354;2023-07-31T05:48:20;15.20;99.90
38910;DHT22;24676;51.360;12.354;2023-07-31T05:51:05;15.20;99.90
38910;DHT22;24676;51.360;12.354;2023-07-31T05:53:49;15.30;99.90
38910;DHT22;24676;51.360;12.354;2023-07-31T05:56:33;15.40;99.90
38910;DHT22;24676;51.360;12.354;2023-07-31T05:59:18;15.40;99.90
38910;DHT22;24676;51.360;12.354;2023-07-31T06:02:02;15.40;99.90
38910;DHT22;24676;51.360;12.354;2023-07-31T06:04:46;15.40;99.90
38910;DHT22;24676;51.360;12.354;2023-07-31T06:07:31;15.50;99.90
38910;DHT22;24676;51.360;12.354;2023-07-31T06:10:16;15.50;99.90
38910;DHT22;24676;51.360;12.354;2023-07-31T06:13:00;15.60;99.90
38910;DHT22;24676;51.360;12.354;2023-07-31T06:15:44;15.60;99.90
38910;DHT22;24676;51.360;12.354;2023-07-31T06:18:28;15.60;99.90
38910;DHT22;24676;51.360;12.354;2023-07-31T06:21:12;15.70;99.90
38910;DHT22;24676;51.360;12.354;2023-07-31T06:23:57;15.80;99.90
38910;DHT22;24676;51.360;12.354;2023-07-31T06:26:41;15.80;99.90
38910;DHT22;24676;51.360;12.354;2023-07-31T06:29:25;16.00;99.90
38910;DHT22;24676;51.360;12.354;2023-07-31T06:32:09;16.00;99.90
38910;DHT22;24676;51.360;12.354;2023-07-31T06:34:54;16.10;99.90
38910;DHT22;24676;51.360;12.354;2023-07-31T06:37:38;16.20;99.90
38910;DHT22;24676;51.360;12.354;2023-07-31T06:40:24;16.30;99.90
38910;DHT22;24676;51.360;12.354;2023-07-31T06:43:08;16.40;99.90
38910;DHT22;24676;51.360;12.354;2023-07-31T06:45:53;16.40;99.90
38910;DHT22;24676;51.360;12.354;2023-07-31T06:48:37;16.40;99.90
38910;DHT22;24676;51.360;12.354;2023-07-31T06:51:21;16.40;99.90
38910;DHT22;24676;51.360;12.354;2023-07-31T06:54:06;16.40;99.90
38910;DHT22;24676;51.360;12.354;2023-07-31T06:56:50;16.40;99.90
38910;DHT22;24676;51.360;12.354;2023-07-31T06:59:34;16.40;99.90
38910;DHT22;24676;51.360;12.354;2023-07-31T07:02:19;16.40;99.90
38910;DHT22;24676;51.360;12.354;2023-07-31T07:05:04;16.40;99.90
38910;DHT22;24676;51.360;12.354;2023-07-31T07:07:49;16.30;99.90
38910;DHT22;24676;51.360;12.354;2023-07-31T07:10:35;16.30;99.90
38910;DHT22;24676;51.360;12.354;2023-07-31T07:13:20;16.30;99.90
38910;DHT22;24676;51.360;12.354;2023-07-31T07:16:04;16.30;99.90
38910;DHT22;24676;51.360;12.354;2023-07-31T07:18:48;16.30;99.90
38910;DHT22;24676;51.360;12.354;2023-07-31T07:21:33;16.40;99.90
38910;DHT22;24676;51.360;12.354;2023-07-31T07:24:17;16.50;99.90
38910;DHT22;24676;51.360;12.354;2023-07-31T07:27:01;16.50;99.90
38910;DHT22;24676;51.360;12.354;2023-07-31T07:29:46;16.50;99.90
38910;DHT22;24676;51.360;12.354;2023-07-31T07:32:30;16.60;99.90
38910;DHT22;24676;51.360;12.354;2023-07-31T07:35:15;16.70;99.90
38910;DHT22;24676;51.360;12.354;2023-07-31T07:38:00;16.70;99.90
38910;DHT22;24676;51.360;12.354;2023-07-31T07:40:45;16.90;99.90
38910;DHT22;24676;51.360;12.354;2023-07-31T07:43:30;17.00;99.90
38910;DHT22;24676;51.360;12.354;2023-07-31T07:46:15;17.10;99.90
38910;DHT22;24676;51.360;12.354;2023-07-31T07:48:59;17.20;99.90
38910;DHT22;24676;51.360;12.354;2023-07-31T07:51:43;17.30;99.90
38910;DHT22;24676;51.360;12.354;2023-07-31T07:54:27;17.40;99.90
38910;DHT22;24676;51.360;12.354;2023-07-31T07:57:11;17.50;99.90
38910;DHT22;24676;51.360;12.354;2023-07-31T07:59:56;17.60;99.90
38910;DHT22;24676;51.360;12.354;2023-07-31T08:02:40;17.60;99.90
38910;DHT22;24676;51.360;12.354;2023-07-31T08:05:24;17.60;99.90
38910;DHT22;24676;51.360;12.354;2023-07-31T08:08:13;17.50;99.90
38910;DHT22;24676;51.360;12.354;2023-07-31T08:10:57;17.50;99.90
38910;DHT22;24676;51.360;12.354;2023-07-31T08:13:42;17.60;99.90
38910;DHT22;24676;51.360;12.354;2023-07-31T08:16:26;17.70;99.90
38910;DHT22;24676;51.360;12.354;2023-07-31T08:19:11;17.80;99.90
38910;DHT22;24676;51.360;12.354;2023-07-31T08:21:55;18.00;99.90
38910;DHT22;24676;51.360;12.354;2023-07-31T08:24:39;18.10;99.90
38910;DHT22;24676;51.360;12.354;2023-07-31T08:27:24;18.10;99.90
38910;DHT22;24676;51.360;12.354;2023-07-31T08:30:09;18.20;99.90
38910;DHT22;24676;51.360;12.354;2023-07-31T08:32:53;18.30;99.90
38910;DHT22;24676;51.360;12.354;2023-07-31T08:35:37;18.40;99.90
38910;DHT22;24676;51.360;12.354;2023-07-31T08:38:22;18.60;99.90
38910;DHT22;24676;51.360;12.354;2023-07-31T08:41:09;18.70;99.90
38910;DHT22;24676;51.360;12.354;2023-07-31T08:43:55;18.80;99.90
38910;DHT22;24676;51.360;12.354;2023-07-31T08:46:40;19.00;99.90
38910;DHT22;24676;51.360;12.354;2023-07-31T08:49:26;19.10;99.90
38910;DHT22;24676;51.360;12.354;2023-07-31T08:52:14;19.00;99.90
38910;DHT22;24676;51.360;12.354;2023-07-31T08:54:58;19.10;99.90
38910;DHT22;24676;51.360;12.354;2023-07-31T08:57:43;19.20;99.90
38910;DHT22;24676;51.360;12.354;2023-07-31T09:00:28;19.10;99.90
38910;DHT22;24676;51.360;12.354;2023-07-31T09:03:14;19.00;99.90
38910;DHT22;24676;51.360;12.354;2023-07-31T09:05:59;19.20;99.90
38910;DHT22;24676;51.360;12.354;2023-07-31T09:08:44;19.20;99.90
38910;DHT22;24676;51.360;12.354;2023-07-31T09:11:28;19.20;99.90
38910;DHT22;24676;51.360;12.354;2023-07-31T09:14:13;19.40;99.90
38910;DHT22;24676;51.360;12.354;2023-07-31T09:16:58;19.40;99.90
38910;DHT22;24676;51.360;12.354;2023-07-31T09:19:43;19.40;99.90
38910;DHT22;24676;51.360;12.354;2023-07-31T09:22:35;19.30;99.90
38910;DHT22;24676;51.360;12.354;2023-07-31T09:25:23;19.30;99.90
38910;DHT22;24676;51.360;12.354;2023-07-31T09:28:10;19.50;99.90
38910;DHT22;24676;51.360;12.354;2023-07-31T09:30:55;19.60;99.90
38910;DHT22;24676;51.360;12.354;2023-07-31T09:33:54;19.70;99.90
38910;DHT22;24676;51.360;12.354;2023-07-31T09:36:47;19.70;99.90
38910;DHT22;24676;51.360;12.354;2023-07-31T09:39:31;19.80;99.90
38910;DHT22;24676;51.360;12.354;2023-07-31T09:42:25;19.80;99.90
38910;DHT22;24676;51.360;12.354;2023-07-31T09:45:10;19.80;99.90
38910;DHT22;24676;51.360;12.354;2023-07-31T09:47:55;19.80;99.90
38910;DHT22;24676;51.360;12.354;2023-07-31T09:50:42;19.90;99.90
38910;DHT22;24676;51.360;12.354;2023-07-31T09:53:29;20.00;99.90
38910;DHT22;24676;51.360;12.354;2023-07-31T09:56:18;20.20;99.90
38910;DHT22;24676;51.360;12.354;2023-07-31T09:59:05;20.50;99.90
38910;DHT22;24676;51.360;12.354;2023-07-31T10:01:49;20.60;99.90
38910;DHT22;24676;51.360;12.354;2023-07-31T10:04:34;20.50;99.90
38910;DHT22;24676;51.360;12.354;2023-07-31T10:07:18;20.40;99.90
38910;DHT22;24676;51.360;12.354;2023-07-31T10:10:05;20.10;99.90
38910;DHT22;24676;51.360;12.354;2023-07-31T10:12:52;20.00;99.90
38910;DHT22;24676;51.360;12.354;2023-07-31T10:15:36;20.30;99.90
38910;DHT22;24676;51.360;12.354;2023-07-31T10:18:21;20.70;99.90
38910;DHT22;24676;51.360;12.354;2023-07-31T10:21:05;21.00;99.90
38910;DHT22;24676;51.360;12.354;2023-07-31T10:23:50;21.50;99.90
38910;DHT22;24676;51.360;12.354;2023-07-31T10:26:35;21.90;99.90
38910;DHT22;24676;51.360;12.354;2023-07-31T10:29:22;22.10;99.90
38910;DHT22;24676;51.360;12.354;2023-07-31T10:32:09;22.30;99.90
38910;DHT22;24676;51.360;12.354;2023-07-31T10:34:55;22.40;99.90
38910;DHT22;24676;51.360;12.354;2023-07-31T10:37:41;22.20;99.90
38910;DHT22;24676;51.360;12.354;2023-07-31T10:40:27;21.90;99.90
38910;DHT22;24676;51.360;12.354;2023-07-31T10:43:23;21.70;99.90
38910;DHT22;24676;51.360;12.354;2023-07-31T10:46:12;21.70;99.90
38910;DHT22;24676;51.360;12.354;2023-07-31T10:49:01;21.70;99.90
38910;DHT22;24676;51.360;12.354;2023-07-31T10:51:47;21.60;99.90
38910;DHT22;24676;51.360;12.354;2023-07-31T10:54:33;21.60;99.90
38910;DHT22;24676;51.360;12.354;2023-07-31T10:57:21;21.80;99.90
38910;DHT22;24676;51.360;12.354;2023-07-31T11:00:42;22.10;99.90
38910;DHT22;24676;51.360;12.354;2023-07-31T11:06:29;22.90;99.70
38910;DHT22;24676;51.360;12.354;2023-07-31T11:09:14;22.80;99.60
38910;DHT22;24676;51.360;12.354;2023-07-31T11:11:59;22.70;98.80
38910;DHT22;24676;51.360;12.354;2023-07-31T11:14:43;22.90;96.80
38910;DHT22;24676;51.360;12.354;2023-07-31T11:17:28;23.40;97.40
38910;DHT22;24676;51.360;12.354;2023-07-31T11:20:11;24.50;90.20
38910;DHT22;24676;51.360;12.354;2023-07-31T11:22:59;25.40;82.60
38910;DHT22;24676;51.360;12.354;2023-07-31T11:25:44;25.30;80.60
38910;DHT22;24676;51.360;12.354;2023-07-31T11:28:32;25.20;78.60
38910;DHT22;24676;51.360;12.354;2023-07-31T11:31:18;24.80;76.10
38910;DHT22;24676;51.360;12.354;2023-07-31T11:34:06;24.40;82.20
38910;DHT22;24676;51.360;12.354;2023-07-31T11:36:56;24.00;85.40
38910;DHT22;24676;51.360;12.354;2023-07-31T11:39:40;24.10;88.60
38910;DHT22;24676;51.360;12.354;2023-07-31T11:42:25;24.20;83.80
38910;DHT22;24676;51.360;12.354;2023-07-31T11:45:09;24.10;82.20
38910;DHT22;24676;51.360;12.354;2023-07-31T11:47:55;24.00;83.60
38910;DHT22;24676;51.360;12.354;2023-07-31T11:50:39;24.10;82.90
38910;DHT22;24676;51.360;12.354;2023-07-31T11:56:20;23.90;86.40
38910;DHT22;24676;51.360;12.354;2023-07-31T11:59:06;23.70;86.50
38910;DHT22;24676;51.360;12.354;2023-07-31T12:01:52;23.50;84.30
38910;DHT22;24676;51.360;12.354;2023-07-31T12:04:37;23.30;84.10
38910;DHT22;24676;51.360;12.354;2023-07-31T12:07:24;23.10;88.30
38910;DHT22;24676;51.360;12.354;2023-07-31T12:10:08;23.00;90.90
38910;DHT22;24676;51.360;12.354;2023-07-31T12:13:03;22.40;96.30
38910;DHT22;24676;51.360;12.354;2023-07-31T12:15:48;21.90;99.90
38910;DHT22;24676;51.360;12.354;2023-07-31T12:18:37;21.80;99.80
38910;DHT22;24676;51.360;12.354;2023-07-31T12:21:22;22.00;99.90
38910;DHT22;24676;51.360;12.354;2023-07-31T12:24:06;22.20;98.20
38910;DHT22;24676;51.360;12.354;2023-07-31T12:26:50;22.30;97.40
38910;DHT22;24676;51.360;12.354;2023-07-31T12:29:36;22.50;94.90
38910;DHT22;24676;51.360;12.354;2023-07-31T12:32:24;22.90;92.30
38910;DHT22;24676;51.360;12.354;2023-07-31T12:35:09;23.20;91.30
38910;DHT22;24676;51.360;12.354;2023-07-31T12:37:53;23.60;90.60
38910;DHT22;24676;51.360;12.354;2023-07-31T12:40:38;23.60;87.20
38910;DHT22;24676;51.360;12.354;2023-07-31T12:43:23;23.60;84.10
38910;DHT22;24676;51.360;12.354;2023-07-31T12:46:08;23.60;86.10
38910;DHT22;24676;51.360;12.354;2023-07-31T12:48:52;23.50;85.40
38910;DHT22;24676;51.360;12.354;2023-07-31T12:51:37;23.50;87.30
38910;DHT22;24676;51.360;12.354;2023-07-31T12:54:21;23.50;88.40
38910;DHT22;24676;51.360;12.354;2023-07-31T12:57:06;23.80;88.90
38910;DHT22;24676;51.360;12.354;2023-07-31T12:59:50;24.10;85.90
38910;DHT22;24676;51.360;12.354;2023-07-31T13:02:34;24.20;84.60
38910;DHT22;24676;51.360;12.354;2023-07-31T13:05:19;24.40;82.40
38910;DHT22;24676;51.360;12.354;2023-07-31T13:08:06;24.60;80.10
38910;DHT22;24676;51.360;12.354;2023-07-31T13:10:50;24.80;80.60
38910;DHT22;24676;51.360;12.354;2023-07-31T13:13:35;25.00;77.80
38910;DHT22;24676;51.360;12.354;2023-07-31T13:16:19;25.10;76.90
38910;DHT22;24676;51.360;12.354;2023-07-31T13:19:03;25.10;77.10
38910;DHT22;24676;51.360;12.354;2023-07-31T13:21:47;25.30;72.10
38910;DHT22;24676;51.360;12.354;2023-07-31T13:24:31;25.50;67.90
38910;DHT22;24676;51.360;12.354;2023-07-31T13:27:16;25.40;67.40
38910;DHT22;24676;51.360;12.354;2023-07-31T13:30:02;25.30;67.80
38910;DHT22;24676;51.360;12.354;2023-07-31T13:32:47;25.20;66.30
38910;DHT22;24676;51.360;12.354;2023-07-31T13:35:31;24.90;66.20
38910;DHT22;24676;51.360;12.354;2023-07-31T13:38:16;24.90;66.40
38910;DHT22;24676;51.360;12.354;2023-07-31T13:41:00;25.20;68.00
38910;DHT22;24676;51.360;12.354;2023-07-31T13:43:44;25.40;65.40
38910;DHT22;24676;51.360;12.354;2023-07-31T13:46:28;25.10;66.30
38910;DHT22;24676;51.360;12.354;2023-07-31T13:49:13;25.00;65.20
38910;DHT22;24676;51.360;12.354;2023-07-31T13:51:58;24.70;67.10
38910;DHT22;24676;51.360;12.354;2023-07-31T13:54:42;24.40;67.60
38910;DHT22;24676;51.360;12.354;2023-07-31T13:57:27;24.20;68.00
38910;DHT22;24676;51.360;12.354;2023-07-31T14:00:13;24.00;69.50
38910;DHT22;24676;51.360;12.354;2023-07-31T14:02:57;23.70;72.00
38910;DHT22;24676;51.360;12.354;2023-07-31T14:05:41;23.60;72.30
38910;DHT22;24676;51.360;12.354;2023-07-31T14:08:26;23.40;73.00
38910;DHT22;24676;51.360;12.354;2023-07-31T14:11:10;23.20;76.60
38910;DHT22;24676;51.360;12.354;2023-07-31T14:13:55;23.00;75.90
38910;DHT22;24676;51.360;12.354;2023-07-31T14:16:40;22.70;78.80
38910;DHT22;24676;51.360;12.354;2023-07-31T14:19:24;22.50;81.10
38910;DHT22;24676;51.360;12.354;2023-07-31T14:22:09;22.40;82.10
38910;DHT22;24676;51.360;12.354;2023-07-31T14:24:53;22.30;84.20
38910;DHT22;24676;51.360;12.354;2023-07-31T14:27:37;22.20;85.30
38910;DHT22;24676;51.360;12.354;2023-07-31T14:30:22;22.30;86.10
38910;DHT22;24676;51.360;12.354;2023-07-31T14:33:07;22.40;84.60
38910;DHT22;24676;51.360;12.354;2023-07-31T14:35:51;22.40;84.40
38910;DHT22;24676;51.360;12.354;2023-07-31T14:38:35;22.50;84.70
38910;DHT22;24676;51.360;12.354;2023-07-31T14:41:19;22.70;85.60
38910;DHT22;24676;51.360;12.354;2023-07-31T14:44:04;22.90;84.30
38910;DHT22;24676;51.360;12.354;2023-07-31T14:46:48;23.00;81.40
38910;DHT22;24676;51.360;12.354;2023-07-31T14:49:32;23.00;79.40
38910;DHT22;24676;51.360;12.354;2023-07-31T14:52:17;22.80;79.30
38910;DHT22;24676;51.360;12.354;2023-07-31T14:55:01;22.60;79.50
38910;DHT22;24676;51.360;12.354;2023-07-31T14:57:45;22.60;81.40
38910;DHT22;24676;51.360;12.354;2023-07-31T15:00:29;22.50;80.10
38910;DHT22;24676;51.360;12.354;2023-07-31T15:03:14;22.30;81.00
38910;DHT22;24676;51.360;12.354;2023-07-31T15:05:58;22.10;82.80
38910;DHT22;24676;51.360;12.354;2023-07-31T15:08:42;22.00;82.10
38910;DHT22;24676;51.360;12.354;2023-07-31T15:11:26;22.00;82.30
38910;DHT22;24676;51.360;12.354;2023-07-31T15:14:10;22.00;84.10
38910;DHT22;24676;51.360;12.354;2023-07-31T15:16:54;22.00;82.80
38910;DHT22;24676;51.360;12.354;2023-07-31T15:19:39;22.10;82.80
38910;DHT22;24676;51.360;12.354;2023-07-31T15:22:23;22.10;83.10
38910;DHT22;24676;51.360;12.354;2023-07-31T15:25:08;22.10;83.30
38910;DHT22;24676;51.360;12.354;2023-07-31T15:27:53;22.10;84.20
38910;DHT22;24676;51.360;12.354;2023-07-31T15:30:37;22.10;83.70
38910;DHT22;24676;51.360;12.354;2023-07-31T15:33:21;22.10;85.50
38910;DHT22;24676;51.360;12.354;2023-07-31T15:36:06;22.00;84.80
38910;DHT22;24676;51.360;12.354;2023-07-31T15:38:50;21.90;85.60
38910;DHT22;24676;51.360;12.354;2023-07-31T15:41:36;21.90;85.50
38910;DHT22;24676;51.360;12.354;2023-07-31T15:44:20;21.90;87.50
38910;DHT22;24676;51.360;12.354;2023-07-31T15:47:05;21.80;86.10
38910;DHT22;24676;51.360;12.354;2023-07-31T15:49:49;21.70;88.30
38910;DHT22;24676;51.360;12.354;2023-07-31T15:52:33;21.70;88.30
38910;DHT22;24676;51.360;12.354;2023-07-31T15:55:17;21.70;90.10
38910;DHT22;24676;51.360;12.354;2023-07-31T15:58:02;21.90;89.80
38910;DHT22;24676;51.360;12.354;2023-07-31T16:00:46;21.90;88.40
38910;DHT22;24676;51.360;12.354;2023-07-31T16:03:31;22.00;89.50
38910;DHT22;24676;51.360;12.354;2023-07-31T16:06:15;22.00;89.10
38910;DHT22;24676;51.360;12.354;2023-07-31T16:08:59;21.90;88.40
38910;DHT22;24676;51.360;12.354;2023-07-31T16:11:43;21.90;89.60
38910;DHT22;24676;51.360;12.354;2023-07-31T16:14:27;21.90;90.20
38910;DHT22;24676;51.360;12.354;2023-07-31T16:17:12;21.90;90.80
38910;DHT22;24676;51.360;12.354;2023-07-31T16:19:56;21.80;90.40
38910;DHT22;24676;51.360;12.354;2023-07-31T16:22:41;21.70;91.20
38910;DHT22;24676;51.360;12.354;2023-07-31T16:25:26;21.60;91.30
38910;DHT22;24676;51.360;12.354;2023-07-31T16:28:10;21.60;90.90
38910;DHT22;24676;51.360;12.354;2023-07-31T16:30:55;21.60;92.40
38910;DHT22;24676;51.360;12.354;2023-07-31T16:33:38;21.60;91.50
38910;DHT22;24676;51.360;12.354;2023-07-31T16:36:23;21.60;92.20
38910;DHT22;24676;51.360;12.354;2023-07-31T16:39:06;21.60;92.50
38910;DHT22;24676;51.360;12.354;2023-07-31T16:41:51;21.60;92.30
38910;DHT22;24676;51.360;12.354;2023-07-31T16:44:35;21.70;92.40
38910;DHT22;24676;51.360;12.354;2023-07-31T16:47:19;21.70;91.90
38910;DHT22;24676;51.360;12.354;2023-07-31T16:50:04;21.70;93.00
38910;DHT22;24676;51.360;12.354;2023-07-31T16:52:48;21.80;92.70
38910;DHT22;24676;51.360;12.354;2023-07-31T16:55:32;21.90;92.10
38910;DHT22;24676;51.360;12.354;2023-07-31T16:58:18;22.00;92.10
38910;DHT22;24676;51.360;12.354;2023-07-31T17:01:02;22.00;92.30
38910;DHT22;24676;51.360;12.354;2023-07-31T17:03:47;22.10;91.70
38910;DHT22;24676;51.360;12.354;2023-07-31T17:06:31;22.10;91.20
38910;DHT22;24676;51.360;12.354;2023-07-31T17:09:15;22.10;91.40
38910;DHT22;24676;51.360;12.354;2023-07-31T17:12:00;22.00;90.90
38910;DHT22;24676;51.360;12.354;2023-07-31T17:14:44;22.00;91.30